sensor_id;sensor_type;location;lat;lon;timestamp;P1;durP1;ratioP1;P2;durP2;ratioP2
66298;SDS011;53098;47.658;8.578;2023-01-31T00:01:24;9.50;;;4.37;;
66298;SDS011;53098;47.658;8.578;2023-01-31T00:03:53;9.65;;;4.63;;
66298;SDS011;53098;47.658;8.578;2023-01-31T00:08:50;8.40;;;4.07;;
66298;SDS011;53098;47.658;8.578;2023-01-31T00:11:16;8.30;;;4.20;;
66298;SDS011;53098;47.658;8.578;2023-01-31T00:13:42;8.15;;;3.95;;
66298;SDS011;53098;47.658;8.578;2023-01-31T00:16:09;7.88;;;4.00;;
66298;SDS011;53098;47.658;8.578;2023-01-31T00:18:35;8.85;;;3.90;;
66298;SDS011;53098;47.658;8.578;2023-01-31T00:21:07;9.18;;;4.07;;
66298;SDS011;53098;47.658;8.578;2023-01-31T00:23:32;8.07;;;4.00;;
66298;SDS011;53098;47.658;8.578;2023-01-31T00:26:11;9.95;;;3.97;;
66298;SDS011;53098;47.658;8.578;2023-01-31T00:28:37;8.60;;;3.83;;
66298;SDS011;53098;47.658;8.578;2023-01-31T00:31:02;9.63;;;4.25;;
66298;SDS011;53098;47.658;8.578;2023-01-31T00:33:27;8.77;;;4.20;;
66298;SDS011;53098;47.658;8.578;2023-01-31T00:35:52;8.63;;;4.40;;
66298;SDS011;53098;47.658;8.578;2023-01-31T00:38:18;11.60;;;4.63;;
66298;SDS011;53098;47.658;8.578;2023-01-31T00:40:50;9.63;;;4.67;;
66298;SDS011;53098;47.658;8.578;2023-01-31T00:43:15;8.80;;;4.68;;
66298;SDS011;53098;47.658;8.578;2023-01-31T00:45:40;9.97;;;4.27;;
66298;SDS011;53098;47.658;8.578;2023-01-31T00:48:06;9.33;;;4.57;;
66298;SDS011;53098;47.658;8.578;2023-01-31T00:50:31;9.97;;;5.03;;
66298;SDS011;53098;47.658;8.578;2023-01-31T00:52:56;9.53;;;4.60;;
66298;SDS011;53098;47.658;8.578;2023-01-31T00:55:21;9.93;;;4.40;;
66298;SDS011;53098;47.658;8.578;2023-01-31T00:57:47;8.60;;;4.30;;
66298;SDS011;53098;47.658;8.578;2023-01-31T01:00:12;8.30;;;4.40;;
66298;SDS011;53098;47.658;8.578;2023-01-31T01:02:37;9.05;;;4.00;;
66298;SDS011;53098;47.658;8.578;2023-01-31T01:05:03;8.40;;;3.83;;
66298;SDS011;53098;47.658;8.578;2023-01-31T01:07:28;8.52;;;3.95;;
66298;SDS011;53098;47.658;8.578;2023-01-31T01:09:53;8.43;;;3.80;;
66298;SDS011;53098;47.658;8.578;2023-01-31T01:12:19;9.30;;;4.07;;
66298;SDS011;53098;47.658;8.578;2023-01-31T01:14:44;8.27;;;4.23;;
66298;SDS011;53098;47.658;8.578;2023-01-31T01:17:09;9.13;;;4.23;;
66298;SDS011;53098;47.658;8.578;2023-01-31T01:19:34;9.23;;;4.43;;
66298;SDS011;53098;47.658;8.578;2023-01-31T01:22:00;8.47;;;4.23;;
66298;SDS011;53098;47.658;8.578;2023-01-31T01:24:25;10.20;;;4.80;;
66298;SDS011;53098;47.658;8.578;2023-01-31T01:26:50;10.13;;;4.13;;
66298;SDS011;53098;47.658;8.578;2023-01-31T01:29:15;10.37;;;4.43;;
66298;SDS011;53098;47.658;8.578;2023-01-31T01:31:41;8.63;;;4.60;;
66298;SDS011;53098;47.658;8.578;2023-01-31T01:34:07;10.03;;;4.60;;
66298;SDS011;53098;47.658;8.578;2023-01-31T01:36:34;11.10;;;4.80;;
66298;SDS011;53098;47.658;8.578;2023-01-31T01:38:59;9.60;;;4.90;;
66298;SDS011;53098;47.658;8.578;2023-01-31T01:41:24;10.67;;;4.77;;
66298;SDS011;53098;47.658;8.578;2023-01-31T01:43:54;9.57;;;4.93;;
66298;SDS011;53098;47.658;8.578;2023-01-31T01:46:41;9.95;;;4.90;;
66298;SDS011;53098;47.658;8.578;2023-01-31T01:49:11;9.13;;;5.05;;
66298;SDS011;53098;47.658;8.578;2023-01-31T01:51:38;10.02;;;4.80;;
66298;SDS011;53098;47.658;8.578;2023-01-31T01:54:05;10.70;;;5.57;;
66298;SDS011;53098;47.658;8.578;2023-01-31T01:56:32;9.63;;;4.78;;
66298;SDS011;53098;47.658;8.578;2023-01-31T01:59:00;10.93;;;5.28;;
66298;SDS011;53098;47.658;8.578;2023-01-31T02:01:28;9.75;;;4.90;;
66298;SDS011;53098;47.658;8.578;2023-01-31T02:03:53;9.95;;;5.03;;
66298;SDS011;53098;47.658;8.578;2023-01-31T02:06:19;10.05;;;5.35;;
66298;SDS011;53098;47.658;8.578;2023-01-31T02:08:45;8.52;;;4.47;;
66298;SDS011;53098;47.658;8.578;2023-01-31T02:11:13;9.67;;;4.80;;
66298;SDS011;53098;47.658;8.578;2023-01-31T02:13:39;9.00;;;4.38;;
66298;SDS011;53098;47.658;8.578;2023-01-31T02:16:05;9.18;;;4.78;;
66298;SDS011;53098;47.658;8.578;2023-01-31T02:18:31;8.95;;;4.90;;
66298;SDS011;53098;47.658;8.578;2023-01-31T02:29:14;9.85;;;4.95;;
66298;SDS011;53098;47.658;8.578;2023-01-31T02:34:24;9.95;;;4.90;;
66298;SDS011;53098;47.658;8.578;2023-01-31T02:49:40;10.27;;;5.20;;
66298;SDS011;53098;47.658;8.578;2023-01-31T02:52:19;9.27;;;4.47;;
66298;SDS011;53098;47.658;8.578;2023-01-31T02:57:20;9.18;;;4.90;;
66298;SDS011;53098;47.658;8.578;2023-01-31T02:59:45;10.15;;;4.50;;
66298;SDS011;53098;47.658;8.578;2023-01-31T03:02:11;9.73;;;4.70;;
66298;SDS011;53098;47.658;8.578;2023-01-31T03:04:37;9.95;;;5.25;;
66298;SDS011;53098;47.658;8.578;2023-01-31T03:07:16;12.20;;;4.40;;
66298;SDS011;53098;47.658;8.578;2023-01-31T03:22:19;8.88;;;4.50;;
66298;SDS011;53098;47.658;8.578;2023-01-31T03:24:46;12.05;;;5.00;;
66298;SDS011;53098;47.658;8.578;2023-01-31T03:27:13;10.05;;;4.47;;
66298;SDS011;53098;47.658;8.578;2023-01-31T03:29:38;8.50;;;4.47;;
66298;SDS011;53098;47.658;8.578;2023-01-31T03:32:06;11.15;;;4.88;;
66298;SDS011;53098;47.658;8.578;2023-01-31T03:34:32;11.15;;;4.97;;
66298;SDS011;53098;47.658;8.578;2023-01-31T03:37:03;10.07;;;4.50;;
66298;SDS011;53098;47.658;8.578;2023-01-31T03:42:00;10.87;;;4.97;;
66298;SDS011;53098;47.658;8.578;2023-01-31T03:44:35;11.30;;;4.43;;
66298;SDS011;53098;47.658;8.578;2023-01-31T03:47:03;9.02;;;4.53;;
66298;SDS011;53098;47.658;8.578;2023-01-31T03:49:29;10.60;;;4.03;;
66298;SDS011;53098;47.658;8.578;2023-01-31T03:51:57;9.82;;;4.13;;
66298;SDS011;53098;47.658;8.578;2023-01-31T03:54:28;9.40;;;4.75;;
66298;SDS011;53098;47.658;8.578;2023-01-31T03:56:56;11.02;;;4.82;;
66298;SDS011;53098;47.658;8.578;2023-01-31T03:59:24;8.98;;;4.35;;
66298;SDS011;53098;47.658;8.578;2023-01-31T04:01:52;12.88;;;4.68;;
66298;SDS011;53098;47.658;8.578;2023-01-31T04:04:20;14.07;;;4.53;;
66298;SDS011;53098;47.658;8.578;2023-01-31T04:06:47;9.52;;;4.82;;
66298;SDS011;53098;47.658;8.578;2023-01-31T04:09:12;11.27;;;4.80;;
66298;SDS011;53098;47.658;8.578;2023-01-31T04:11:39;11.05;;;5.50;;
66298;SDS011;53098;47.658;8.578;2023-01-31T04:14:04;9.80;;;4.50;;
66298;SDS011;53098;47.658;8.578;2023-01-31T04:16:30;10.95;;;5.47;;
66298;SDS011;53098;47.658;8.578;2023-01-31T04:18:55;11.37;;;5.00;;
66298;SDS011;53098;47.658;8.578;2023-01-31T04:21:21;12.97;;;5.50;;
66298;SDS011;53098;47.658;8.578;2023-01-31T04:23:46;10.63;;;4.63;;
66298;SDS011;53098;47.658;8.578;2023-01-31T04:26:11;9.43;;;5.47;;
66298;SDS011;53098;47.658;8.578;2023-01-31T04:28:36;11.17;;;5.17;;
66298;SDS011;53098;47.658;8.578;2023-01-31T04:31:02;9.87;;;4.83;;
66298;SDS011;53098;47.658;8.578;2023-01-31T04:33:27;12.40;;;4.80;;
66298;SDS011;53098;47.658;8.578;2023-01-31T04:35:52;11.37;;;5.10;;
66298;SDS011;53098;47.658;8.578;2023-01-31T04:38:18;11.20;;;5.40;;
66298;SDS011;53098;47.658;8.578;2023-01-31T04:40:43;11.02;;;5.43;;
66298;SDS011;53098;47.658;8.578;2023-01-31T04:43:08;11.73;;;5.53;;
66298;SDS011;53098;47.658;8.578;2023-01-31T04:45:33;10.63;;;5.30;;
66298;SDS011;53098;47.658;8.578;2023-01-31T04:47:59;14.50;;;5.37;;
66298;SDS011;53098;47.658;8.578;2023-01-31T04:50:24;12.40;;;4.77;;
66298;SDS011;53098;47.658;8.578;2023-01-31T04:52:50;12.95;;;4.95;;
66298;SDS011;53098;47.658;8.578;2023-01-31T04:55:15;10.65;;;5.22;;
66298;SDS011;53098;47.658;8.578;2023-01-31T04:57:41;11.15;;;4.90;;
66298;SDS011;53098;47.658;8.578;2023-01-31T05:00:06;11.50;;;4.77;;
66298;SDS011;53098;47.658;8.578;2023-01-31T05:02:33;12.65;;;6.07;;
66298;SDS011;53098;47.658;8.578;2023-01-31T05:04:59;12.33;;;5.30;;
66298;SDS011;53098;47.658;8.578;2023-01-31T05:07:24;11.47;;;5.43;;
66298;SDS011;53098;47.658;8.578;2023-01-31T05:09:49;11.60;;;5.05;;
66298;SDS011;53098;47.658;8.578;2023-01-31T05:12:15;12.90;;;5.47;;
66298;SDS011;53098;47.658;8.578;2023-01-31T05:14:40;10.43;;;4.87;;
66298;SDS011;53098;47.658;8.578;2023-01-31T05:17:05;13.23;;;4.70;;
66298;SDS011;53098;47.658;8.578;2023-01-31T05:19:30;12.67;;;4.63;;
66298;SDS011;53098;47.658;8.578;2023-01-31T05:21:56;12.13;;;4.57;;
66298;SDS011;53098;47.658;8.578;2023-01-31T05:24:21;10.40;;;4.93;;
66298;SDS011;53098;47.658;8.578;2023-01-31T05:26:46;11.80;;;5.38;;
66298;SDS011;53098;47.658;8.578;2023-01-31T05:29:12;11.33;;;5.30;;
66298;SDS011;53098;47.658;8.578;2023-01-31T05:31:37;11.07;;;5.20;;
66298;SDS011;53098;47.658;8.578;2023-01-31T05:34:02;10.73;;;5.40;;
66298;SDS011;53098;47.658;8.578;2023-01-31T05:36:28;12.47;;;5.10;;
66298;SDS011;53098;47.658;8.578;2023-01-31T05:38:53;11.00;;;5.07;;
66298;SDS011;53098;47.658;8.578;2023-01-31T05:41:18;10.20;;;4.77;;
66298;SDS011;53098;47.658;8.578;2023-01-31T05:43:43;11.07;;;5.20;;
66298;SDS011;53098;47.658;8.578;2023-01-31T05:46:09;10.87;;;4.83;;
66298;SDS011;53098;47.658;8.578;2023-01-31T05:48:34;11.47;;;5.80;;
66298;SDS011;53098;47.658;8.578;2023-01-31T05:50:59;17.40;;;5.70;;
66298;SDS011;53098;47.658;8.578;2023-01-31T05:53:24;30.67;;;13.53;;
66298;SDS011;53098;47.658;8.578;2023-01-31T05:55:49;14.77;;;6.90;;
66298;SDS011;53098;47.658;8.578;2023-01-31T05:58:15;14.27;;;6.90;;
66298;SDS011;53098;47.658;8.578;2023-01-31T06:00:40;11.80;;;5.43;;
66298;SDS011;53098;47.658;8.578;2023-01-31T06:03:05;10.43;;;6.03;;
66298;SDS011;53098;47.658;8.578;2023-01-31T06:05:31;11.98;;;5.30;;
66298;SDS011;53098;47.658;8.578;2023-01-31T06:07:56;11.07;;;4.60;;
66298;SDS011;53098;47.658;8.578;2023-01-31T06:10:21;10.50;;;4.60;;
66298;SDS011;53098;47.658;8.578;2023-01-31T06:12:47;10.23;;;5.13;;
66298;SDS011;53098;47.658;8.578;2023-01-31T06:15:12;11.47;;;5.03;;
66298;SDS011;53098;47.658;8.578;2023-01-31T06:17:37;13.95;;;5.80;;
66298;SDS011;53098;47.658;8.578;2023-01-31T06:20:03;11.37;;;5.37;;
66298;SDS011;53098;47.658;8.578;2023-01-31T06:22:28;12.30;;;5.20;;
66298;SDS011;53098;47.658;8.578;2023-01-31T06:24:54;12.50;;;5.73;;
66298;SDS011;53098;47.658;8.578;2023-01-31T06:27:19;10.73;;;5.23;;
66298;SDS011;53098;47.658;8.578;2023-01-31T06:29:44;12.83;;;5.50;;
66298;SDS011;53098;47.658;8.578;2023-01-31T06:32:09;13.10;;;6.43;;
66298;SDS011;53098;47.658;8.578;2023-01-31T06:34:35;12.80;;;6.20;;
66298;SDS011;53098;47.658;8.578;2023-01-31T06:37:00;12.57;;;5.63;;
66298;SDS011;53098;47.658;8.578;2023-01-31T06:39:25;12.70;;;5.57;;
66298;SDS011;53098;47.658;8.578;2023-01-31T06:41:50;12.50;;;6.30;;
66298;SDS011;53098;47.658;8.578;2023-01-31T06:44:16;11.60;;;5.53;;
66298;SDS011;53098;47.658;8.578;2023-01-31T06:46:41;12.07;;;5.20;;
66298;SDS011;53098;47.658;8.578;2023-01-31T06:49:07;10.27;;;4.33;;
66298;SDS011;53098;47.658;8.578;2023-01-31T06:51:32;9.87;;;4.77;;
66298;SDS011;53098;47.658;8.578;2023-01-31T06:53:57;13.13;;;5.22;;
66298;SDS011;53098;47.658;8.578;2023-01-31T06:56:23;12.77;;;5.05;;
66298;SDS011;53098;47.658;8.578;2023-01-31T06:58:48;11.27;;;4.13;;
66298;SDS011;53098;47.658;8.578;2023-01-31T07:01:13;12.10;;;4.27;;
66298;SDS011;53098;47.658;8.578;2023-01-31T07:03:39;12.02;;;4.65;;
66298;SDS011;53098;47.658;8.578;2023-01-31T07:06:05;9.25;;;4.57;;
66298;SDS011;53098;47.658;8.578;2023-01-31T07:08:30;9.95;;;4.35;;
66298;SDS011;53098;47.658;8.578;2023-01-31T07:10:56;10.60;;;4.85;;
66298;SDS011;53098;47.658;8.578;2023-01-31T07:13:21;11.45;;;4.65;;
66298;SDS011;53098;47.658;8.578;2023-01-31T07:15:47;12.70;;;4.73;;
66298;SDS011;53098;47.658;8.578;2023-01-31T07:18:12;9.52;;;4.70;;
66298;SDS011;53098;47.658;8.578;2023-01-31T07:20:41;11.45;;;4.35;;
66298;SDS011;53098;47.658;8.578;2023-01-31T07:23:06;11.45;;;4.30;;
66298;SDS011;53098;47.658;8.578;2023-01-31T07:25:32;11.57;;;4.40;;
66298;SDS011;53098;47.658;8.578;2023-01-31T07:27:57;8.23;;;3.73;;
66298;SDS011;53098;47.658;8.578;2023-01-31T07:30:22;8.53;;;3.57;;
66298;SDS011;53098;47.658;8.578;2023-01-31T07:32:48;9.27;;;4.00;;
66298;SDS011;53098;47.658;8.578;2023-01-31T07:35:13;9.80;;;4.33;;
66298;SDS011;53098;47.658;8.578;2023-01-31T07:37:38;9.75;;;4.35;;
66298;SDS011;53098;47.658;8.578;2023-01-31T07:40:04;12.57;;;4.70;;
66298;SDS011;53098;47.658;8.578;2023-01-31T07:42:31;10.10;;;4.43;;
66298;SDS011;53098;47.658;8.578;2023-01-31T07:44:57;11.43;;;5.05;;
66298;SDS011;53098;47.658;8.578;2023-01-31T07:47:22;14.17;;;6.77;;
66298;SDS011;53098;47.658;8.578;2023-01-31T07:49:47;14.38;;;5.28;;
66298;SDS011;53098;47.658;8.578;2023-01-31T07:52:13;9.43;;;4.00;;
66298;SDS011;53098;47.658;8.578;2023-01-31T07:54:38;17.10;;;4.97;;
66298;SDS011;53098;47.658;8.578;2023-01-31T07:57:03;11.67;;;4.83;;
66298;SDS011;53098;47.658;8.578;2023-01-31T07:59:28;12.27;;;5.20;;
66298;SDS011;53098;47.658;8.578;2023-01-31T08:01:54;11.40;;;5.60;;
66298;SDS011;53098;47.658;8.578;2023-01-31T08:04:19;15.77;;;6.33;;
66298;SDS011;53098;47.658;8.578;2023-01-31T08:06:44;14.80;;;6.30;;
66298;SDS011;53098;47.658;8.578;2023-01-31T08:09:10;21.42;;;12.15;;
66298;SDS011;53098;47.658;8.578;2023-01-31T08:11:35;15.52;;;8.18;;
66298;SDS011;53098;47.658;8.578;2023-01-31T08:14:01;29.30;;;16.67;;
66298;SDS011;53098;47.658;8.578;2023-01-31T08:16:26;51.67;;;27.73;;
66298;SDS011;53098;47.658;8.578;2023-01-31T08:42:38;15.73;;;7.47;;
66298;SDS011;53098;47.658;8.578;2023-01-31T08:45:04;13.68;;;5.45;;
66298;SDS011;53098;47.658;8.578;2023-01-31T08:47:30;11.90;;;3.80;;
66298;SDS011;53098;47.658;8.578;2023-01-31T08:49:55;9.80;;;5.47;;
66298;SDS011;53098;47.658;8.578;2023-01-31T08:52:20;10.63;;;4.40;;
66298;SDS011;53098;47.658;8.578;2023-01-31T08:54:46;10.00;;;4.23;;
66298;SDS011;53098;47.658;8.578;2023-01-31T08:57:11;8.80;;;3.63;;
66298;SDS011;53098;47.658;8.578;2023-01-31T08:59:36;13.07;;;4.33;;
66298;SDS011;53098;47.658;8.578;2023-01-31T09:02:01;10.27;;;4.30;;
66298;SDS011;53098;47.658;8.578;2023-01-31T09:04:27;10.17;;;4.37;;
66298;SDS011;53098;47.658;8.578;2023-01-31T09:06:52;11.23;;;3.63;;
66298;SDS011;53098;47.658;8.578;2023-01-31T09:09:17;17.47;;;4.60;;
66298;SDS011;53098;47.658;8.578;2023-01-31T09:11:42;13.38;;;4.93;;
66298;SDS011;53098;47.658;8.578;2023-01-31T09:35:25;10.88;;;5.13;;
66298;SDS011;53098;47.658;8.578;2023-01-31T09:37:51;9.80;;;4.10;;
66298;SDS011;53098;47.658;8.578;2023-01-31T09:40:19;15.10;;;5.23;;
66298;SDS011;53098;47.658;8.578;2023-01-31T09:42:45;9.60;;;5.10;;
66298;SDS011;53098;47.658;8.578;2023-01-31T09:45:12;9.65;;;4.43;;
66298;SDS011;53098;47.658;8.578;2023-01-31T09:47:39;10.55;;;4.85;;
66298;SDS011;53098;47.658;8.578;2023-01-31T09:50:22;10.02;;;4.00;;
66298;SDS011;53098;47.658;8.578;2023-01-31T09:52:51;8.55;;;3.95;;
66298;SDS011;53098;47.658;8.578;2023-01-31T09:55:41;10.80;;;4.00;;
66298;SDS011;53098;47.658;8.578;2023-01-31T10:20:20;12.13;;;4.27;;
66298;SDS011;53098;47.658;8.578;2023-01-31T10:23:00;10.15;;;4.60;;
66298;SDS011;53098;47.658;8.578;2023-01-31T10:25:36;10.05;;;4.13;;
66298;SDS011;53098;47.658;8.578;2023-01-31T10:28:05;13.85;;;4.78;;
66298;SDS011;53098;47.658;8.578;2023-01-31T10:30:47;10.10;;;4.07;;
66298;SDS011;53098;47.658;8.578;2023-01-31T10:33:21;9.82;;;4.53;;
66298;SDS011;53098;47.658;8.578;2023-01-31T10:35:47;9.57;;;4.47;;
66298;SDS011;53098;47.658;8.578;2023-01-31T10:38:18;10.65;;;4.68;;
66298;SDS011;53098;47.658;8.578;2023-01-31T10:40:46;10.95;;;4.53;;
66298;SDS011;53098;47.658;8.578;2023-01-31T10:43:17;10.05;;;4.65;;
66298;SDS011;53098;47.658;8.578;2023-01-31T10:45:45;8.98;;;4.13;;
66298;SDS011;53098;47.658;8.578;2023-01-31T10:48:20;9.93;;;4.23;;
66298;SDS011;53098;47.658;8.578;2023-01-31T10:53:15;8.47;;;4.23;;
66298;SDS011;53098;47.658;8.578;2023-01-31T10:55:58;10.77;;;5.15;;
66298;SDS011;53098;47.658;8.578;2023-01-31T10:58:25;10.02;;;4.50;;
66298;SDS011;53098;47.658;8.578;2023-01-31T11:00:51;9.77;;;4.10;;
66298;SDS011;53098;47.658;8.578;2023-01-31T11:27:41;9.27;;;3.42;;
66298;SDS011;53098;47.658;8.578;2023-01-31T11:30:17;8.32;;;3.22;;
66298;SDS011;53098;47.658;8.578;2023-01-31T11:37:47;13.75;;;3.75;;
66298;SDS011;53098;47.658;8.578;2023-01-31T11:42:51;13.10;;;4.50;;
66298;SDS011;53098;47.658;8.578;2023-01-31T11:45:18;8.32;;;3.28;;
66298;SDS011;53098;47.658;8.578;2023-01-31T11:47:53;19.63;;;4.60;;
66298;SDS011;53098;47.658;8.578;2023-01-31T11:50:21;13.95;;;4.40;;
66298;SDS011;53098;47.658;8.578;2023-01-31T11:52:55;14.05;;;3.83;;
66298;SDS011;53098;47.658;8.578;2023-01-31T11:55:21;11.13;;;3.97;;
66298;SDS011;53098;47.658;8.578;2023-01-31T11:57:48;13.63;;;3.35;;
66298;SDS011;53098;47.658;8.578;2023-01-31T12:00:19;7.68;;;2.95;;
66298;SDS011;53098;47.658;8.578;2023-01-31T12:02:49;10.52;;;3.38;;
66298;SDS011;53098;47.658;8.578;2023-01-31T12:05:17;13.05;;;3.50;;
66298;SDS011;53098;47.658;8.578;2023-01-31T12:07:47;11.90;;;3.15;;
66298;SDS011;53098;47.658;8.578;2023-01-31T12:10:23;7.63;;;2.83;;
66298;SDS011;53098;47.658;8.578;2023-01-31T12:12:50;12.40;;;3.13;;
66298;SDS011;53098;47.658;8.578;2023-01-31T12:15:16;8.07;;;2.83;;
66298;SDS011;53098;47.658;8.578;2023-01-31T12:17:43;7.68;;;2.70;;
66298;SDS011;53098;47.658;8.578;2023-01-31T12:20:52;11.88;;;3.05;;
66298;SDS011;53098;47.658;8.578;2023-01-31T12:28:54;10.13;;;2.88;;
66298;SDS011;53098;47.658;8.578;2023-01-31T12:41:52;6.72;;;2.65;;
66298;SDS011;53098;47.658;8.578;2023-01-31T12:52:54;9.07;;;2.65;;
66298;SDS011;53098;47.658;8.578;2023-01-31T13:03:08;5.40;;;2.33;;
66298;SDS011;53098;47.658;8.578;2023-01-31T13:05:48;8.27;;;2.20;;
66298;SDS011;53098;47.658;8.578;2023-01-31T13:10:48;9.83;;;2.00;;
66298;SDS011;53098;47.658;8.578;2023-01-31T13:13:22;5.35;;;1.85;;
66298;SDS011;53098;47.658;8.578;2023-01-31T13:18:13;8.27;;;2.60;;
66298;SDS011;53098;47.658;8.578;2023-01-31T13:20:55;9.15;;;2.28;;
66298;SDS011;53098;47.658;8.578;2023-01-31T13:23:23;6.55;;;2.45;;
66298;SDS011;53098;47.658;8.578;2023-01-31T13:25:53;9.43;;;2.67;;
66298;SDS011;53098;47.658;8.578;2023-01-31T13:28:22;8.10;;;2.60;;
66298;SDS011;53098;47.658;8.578;2023-01-31T13:30:50;8.73;;;3.05;;
66298;SDS011;53098;47.658;8.578;2023-01-31T13:35:42;9.07;;;3.40;;
66298;SDS011;53098;47.658;8.578;2023-01-31T13:38:12;9.27;;;3.40;;
66298;SDS011;53098;47.658;8.578;2023-01-31T13:40:49;8.50;;;2.83;;
66298;SDS011;53098;47.658;8.578;2023-01-31T13:43:15;7.10;;;2.80;;
66298;SDS011;53098;47.658;8.578;2023-01-31T13:45:48;8.65;;;3.05;;
66298;SDS011;53098;47.658;8.578;2023-01-31T13:50:45;11.48;;;3.03;;
66298;SDS011;53098;47.658;8.578;2023-01-31T13:53:31;7.72;;;3.15;;
66298;SDS011;53098;47.658;8.578;2023-01-31T13:55:58;7.35;;;3.17;;
66298;SDS011;53098;47.658;8.578;2023-01-31T13:58:28;8.23;;;3.65;;
66298;SDS011;53098;47.658;8.578;2023-01-31T14:01:02;8.75;;;3.38;;
66298;SDS011;53098;47.658;8.578;2023-01-31T14:03:28;7.45;;;2.95;;
66298;SDS011;53098;47.658;8.578;2023-01-31T14:06:00;9.00;;;3.63;;
66298;SDS011;53098;47.658;8.578;2023-01-31T14:10:55;7.70;;;3.15;;
66298;SDS011;53098;47.658;8.578;2023-01-31T14:13:43;9.93;;;3.03;;
66298;SDS011;53098;47.658;8.578;2023-01-31T14:18:51;8.27;;;3.42;;
66298;SDS011;53098;47.658;8.578;2023-01-31T14:23:54;9.55;;;3.50;;
66298;SDS011;53098;47.658;8.578;2023-01-31T14:29:13;8.40;;;3.28;;
66298;SDS011;53098;47.658;8.578;2023-01-31T14:31:39;7.38;;;3.35;;
66298;SDS011;53098;47.658;8.578;2023-01-31T14:34:04;11.65;;;3.13;;
66298;SDS011;53098;47.658;8.578;2023-01-31T14:39:13;8.93;;;3.70;;
66298;SDS011;53098;47.658;8.578;2023-01-31T14:42:04;11.00;;;4.00;;
66298;SDS011;53098;47.658;8.578;2023-01-31T14:44:53;9.75;;;3.78;;
66298;SDS011;53098;47.658;8.578;2023-01-31T14:49:54;10.43;;;3.87;;
66298;SDS011;53098;47.658;8.578;2023-01-31T14:52:27;8.38;;;3.67;;
66298;SDS011;53098;47.658;8.578;2023-01-31T14:57:24;8.80;;;3.78;;
66298;SDS011;53098;47.658;8.578;2023-01-31T15:00:04;8.77;;;3.30;;
66298;SDS011;53098;47.658;8.578;2023-01-31T15:05:00;9.70;;;3.10;;
66298;SDS011;53098;47.658;8.578;2023-01-31T15:07:26;12.32;;;4.25;;
66298;SDS011;53098;47.658;8.578;2023-01-31T15:09:51;10.82;;;3.58;;
66298;SDS011;53098;47.658;8.578;2023-01-31T15:15:00;12.00;;;4.65;;
66298;SDS011;53098;47.658;8.578;2023-01-31T15:17:29;9.48;;;3.85;;
66298;SDS011;53098;47.658;8.578;2023-01-31T15:19:57;11.23;;;3.53;;
66298;SDS011;53098;47.658;8.578;2023-01-31T15:22:24;10.10;;;3.20;;
66298;SDS011;53098;47.658;8.578;2023-01-31T15:24:53;9.57;;;4.03;;
66298;SDS011;53098;47.658;8.578;2023-01-31T15:27:21;8.23;;;3.15;;
66298;SDS011;53098;47.658;8.578;2023-01-31T15:32:23;7.97;;;3.22;;
66298;SDS011;53098;47.658;8.578;2023-01-31T15:34:59;7.32;;;3.20;;
66298;SDS011;53098;47.658;8.578;2023-01-31T15:37:28;10.43;;;3.30;;
66298;SDS011;53098;47.658;8.578;2023-01-31T15:40:00;7.80;;;3.17;;
66298;SDS011;53098;47.658;8.578;2023-01-31T15:42:27;14.65;;;4.43;;
66298;SDS011;53098;47.658;8.578;2023-01-31T15:45:12;11.35;;;3.50;;
66298;SDS011;53098;47.658;8.578;2023-01-31T15:47:38;12.10;;;4.10;;
66298;SDS011;53098;47.658;8.578;2023-01-31T15:50:14;12.50;;;4.30;;
66298;SDS011;53098;47.658;8.578;2023-01-31T15:52:39;10.05;;;4.18;;
66298;SDS011;53098;47.658;8.578;2023-01-31T15:55:04;10.67;;;4.37;;
66298;SDS011;53098;47.658;8.578;2023-01-31T15:57:33;8.10;;;3.20;;
66298;SDS011;53098;47.658;8.578;2023-01-31T16:00:00;9.77;;;4.32;;
66298;SDS011;53098;47.658;8.578;2023-01-31T16:02:27;10.15;;;3.50;;
66298;SDS011;53098;47.658;8.578;2023-01-31T16:04:53;11.43;;;4.88;;
66298;SDS011;53098;47.658;8.578;2023-01-31T16:07:20;10.45;;;3.75;;
66298;SDS011;53098;47.658;8.578;2023-01-31T16:09:47;9.82;;;3.75;;
66298;SDS011;53098;47.658;8.578;2023-01-31T16:12:13;8.70;;;3.22;;
66298;SDS011;53098;47.658;8.578;2023-01-31T16:14:39;13.70;;;4.68;;
66298;SDS011;53098;47.658;8.578;2023-01-31T16:17:05;10.23;;;4.22;;
66298;SDS011;53098;47.658;8.578;2023-01-31T16:19:32;11.07;;;4.20;;
66298;SDS011;53098;47.658;8.578;2023-01-31T16:21:58;9.00;;;3.22;;
66298;SDS011;53098;47.658;8.578;2023-01-31T16:24:23;10.27;;;4.03;;
66298;SDS011;53098;47.658;8.578;2023-01-31T16:29:15;11.35;;;3.60;;
66298;SDS011;53098;47.658;8.578;2023-01-31T16:31:48;9.10;;;3.05;;
66298;SDS011;53098;47.658;8.578;2023-01-31T16:34:22;7.05;;;3.20;;
66298;SDS011;53098;47.658;8.578;2023-01-31T16:39:21;8.25;;;3.63;;
66298;SDS011;53098;47.658;8.578;2023-01-31T16:41:48;14.07;;;5.13;;
66298;SDS011;53098;47.658;8.578;2023-01-31T16:44:17;16.38;;;6.80;;
66298;SDS011;53098;47.658;8.578;2023-01-31T16:46:43;14.00;;;4.82;;
66298;SDS011;53098;47.658;8.578;2023-01-31T16:49:28;10.68;;;3.95;;
66298;SDS011;53098;47.658;8.578;2023-01-31T16:51:54;13.57;;;4.15;;
66298;SDS011;53098;47.658;8.578;2023-01-31T16:54:26;11.57;;;4.30;;
66298;SDS011;53098;47.658;8.578;2023-01-31T17:04:24;10.57;;;3.67;;
66298;SDS011;53098;47.658;8.578;2023-01-31T17:06:50;11.75;;;3.83;;
66298;SDS011;53098;47.658;8.578;2023-01-31T17:09:24;10.43;;;3.97;;
66298;SDS011;53098;47.658;8.578;2023-01-31T17:11:49;9.10;;;3.92;;
66298;SDS011;53098;47.658;8.578;2023-01-31T17:14:20;8.80;;;3.20;;
66298;SDS011;53098;47.658;8.578;2023-01-31T17:16:49;10.30;;;3.65;;
66298;SDS011;53098;47.658;8.578;2023-01-31T17:19:14;7.80;;;3.25;;
66298;SDS011;53098;47.658;8.578;2023-01-31T17:21:40;9.23;;;4.00;;
66298;SDS011;53098;47.658;8.578;2023-01-31T17:24:24;11.63;;;4.70;;
66298;SDS011;53098;47.658;8.578;2023-01-31T17:26:49;12.52;;;4.28;;
66298;SDS011;53098;47.658;8.578;2023-01-31T17:29:14;7.93;;;3.47;;
66298;SDS011;53098;47.658;8.578;2023-01-31T17:31:40;8.33;;;3.20;;
66298;SDS011;53098;47.658;8.578;2023-01-31T17:34:09;8.50;;;4.03;;
66298;SDS011;53098;47.658;8.578;2023-01-31T17:36:35;11.57;;;4.68;;
66298;SDS011;53098;47.658;8.578;2023-01-31T17:39:00;11.17;;;4.63;;
66298;SDS011;53098;47.658;8.578;2023-01-31T17:41:26;15.17;;;5.80;;
66298;SDS011;53098;47.658;8.578;2023-01-31T17:43:51;10.50;;;3.80;;
66298;SDS011;53098;47.658;8.578;2023-01-31T17:46:17;7.83;;;3.27;;
66298;SDS011;53098;47.658;8.578;2023-01-31T17:48:43;9.57;;;3.38;;
66298;SDS011;53098;47.658;8.578;2023-01-31T17:51:08;13.02;;;5.65;;
66298;SDS011;53098;47.658;8.578;2023-01-31T17:53:33;16.40;;;6.00;;
66298;SDS011;53098;47.658;8.578;2023-01-31T17:55:59;10.18;;;4.10;;
66298;SDS011;53098;47.658;8.578;2023-01-31T17:58:24;11.35;;;4.15;;
66298;SDS011;53098;47.658;8.578;2023-01-31T18:00:49;8.37;;;3.50;;
66298;SDS011;53098;47.658;8.578;2023-01-31T18:03:15;9.50;;;3.90;;
66298;SDS011;53098;47.658;8.578;2023-01-31T18:05:41;9.30;;;3.80;;
66298;SDS011;53098;47.658;8.578;2023-01-31T18:08:06;9.20;;;4.10;;
66298;SDS011;53098;47.658;8.578;2023-01-31T18:10:31;15.33;;;5.63;;
66298;SDS011;53098;47.658;8.578;2023-01-31T18:12:57;9.90;;;4.72;;
66298;SDS011;53098;47.658;8.578;2023-01-31T18:15:22;12.23;;;4.43;;
66298;SDS011;53098;47.658;8.578;2023-01-31T18:17:47;16.70;;;6.20;;
66298;SDS011;53098;47.658;8.578;2023-01-31T18:20:13;16.97;;;7.33;;
66298;SDS011;53098;47.658;8.578;2023-01-31T18:22:38;9.90;;;4.72;;
66298;SDS011;53098;47.658;8.578;2023-01-31T18:25:03;9.60;;;3.77;;
66298;SDS011;53098;47.658;8.578;2023-01-31T18:27:29;12.05;;;3.83;;
66298;SDS011;53098;47.658;8.578;2023-01-31T18:29:54;10.90;;;4.60;;